createdAt,value
2023-10-22T00:00:23.371Z,13.43
2023-10-22T00:02:50.338Z,13.42
2023-10-22T00:05:17.212Z,13.39
2023-10-22T00:07:44.127Z,13.41
2023-10-22T00:10:10.888Z,13.36
2023-10-22T00:12:37.720Z,13.37
2023-10-22T00:15:04.969Z,13.35
2023-10-22T00:17:34.373Z,13.32
2023-10-22T00:20:01.146Z,13.30
2023-10-22T00:22:27.944Z,13.27
2023-10-22T00:24:54.736Z,13.26
2023-10-22T00:27:21.494Z,13.26
2023-10-22T00:29:48.377Z,13.26
2023-10-22T00:32:15.204Z,13.22
2023-10-22T00:34:42.275Z,13.20
2023-10-22T00:37:09.481Z,13.18
2023-10-22T00:39:36.260Z,13.15
2023-10-22T00:42:03.500Z,13.18
2023-10-22T00:44:30.512Z,13.15
2023-10-22T00:46:57.709Z,13.10
2023-10-22T00:49:24.849Z,13.08
2023-10-22T00:51:51.690Z,13.04
2023-10-22T00:54:20.631Z,13.03
2023-10-22T00:56:49.443Z,13.02
2023-10-22T00:59:16.270Z,12.99
2023-10-22T01:01:45.881Z,12.98
2023-10-22T01:04:13.811Z,12.97
2023-10-22T01:06:40.885Z,12.92
2023-10-22T01:09:11.234Z,12.94
2023-10-22T01:11:39.370Z,12.90
2023-10-22T01:14:06.954Z,12.88
2023-10-22T01:16:34.009Z,12.88
2023-10-22T01:19:00.759Z,12.92
2023-10-22T01:21:30.523Z,12.94
2023-10-22T01:23:57.979Z,12.94
2023-10-22T01:26:25.173Z,12.91
2023-10-22T01:28:52.301Z,12.89
2023-10-22T01:31:19.315Z,12.88
2023-10-22T01:33:46.197Z,12.86
2023-10-22T01:36:13.359Z,12.84
2023-10-22T01:38:40.821Z,12.86
2023-10-22T01:41:08.153Z,12.86
2023-10-22T01:43:35.069Z,12.83
2023-10-22T01:46:01.903Z,12.81
2023-10-22T01:48:28.884Z,12.79
2023-10-22T01:50:55.741Z,12.74
2023-10-22T01:53:23.617Z,12.71
2023-10-22T01:55:50.498Z,12.68
2023-10-22T01:58:17.375Z,12.67
2023-10-22T02:00:44.343Z,12.64
2023-10-22T02:03:12.084Z,12.62
2023-10-22T02:05:39.005Z,12.59
2023-10-22T02:08:07.230Z,12.58
2023-10-22T02:10:34.887Z,12.58
2023-10-22T02:13:01.719Z,12.57
2023-10-22T02:15:28.589Z,12.54
2023-10-22T02:17:55.624Z,12.54
2023-10-22T02:20:22.853Z,12.53
2023-10-22T02:22:49.760Z,12.54
2023-10-22T02:25:16.560Z,12.48
2023-10-22T02:27:43.396Z,12.47
2023-10-22T02:30:10.774Z,12.41
2023-10-22T02:32:37.962Z,12.43
2023-10-22T02:35:05.303Z,12.41
2023-10-22T02:37:32.150Z,12.37
2023-10-22T02:39:58.902Z,12.35
2023-10-22T02:42:27.315Z,12.33
2023-10-22T02:44:54.123Z,12.27
2023-10-22T02:47:21.898Z,12.26
2023-10-22T02:49:49.093Z,12.28
2023-10-22T02:52:15.923Z,12.29
2023-10-22T02:54:43.241Z,12.26
2023-10-22T02:57:11.131Z,12.24
2023-10-22T02:59:38.058Z,12.23
2023-10-22T03:02:04.968Z,12.24
2023-10-22T03:04:31.864Z,12.24
2023-10-22T03:06:58.801Z,12.22
2023-10-22T03:09:25.761Z,12.23
2023-10-22T03:11:52.630Z,12.20
2023-10-22T03:14:21.527Z,12.20
2023-10-22T03:16:48.973Z,12.16
2023-10-22T03:19:15.998Z,12.12
2023-10-22T03:21:42.880Z,12.11
2023-10-22T03:24:13.073Z,12.10
2023-10-22T03:26:40.002Z,12.03
2023-10-22T03:29:07.989Z,11.99
2023-10-22T03:31:34.944Z,12.01
2023-10-22T03:34:01.695Z,11.98
2023-10-22T03:36:29.305Z,11.97
2023-10-22T03:38:56.147Z,11.98
2023-10-22T03:41:22.907Z,11.97
2023-10-22T03:43:50.384Z,11.98
2023-10-22T03:46:17.425Z,11.97
2023-10-22T03:48:44.506Z,11.99
2023-10-22T03:51:13.766Z,11.95
2023-10-22T03:53:41.259Z,11.94
2023-10-22T03:56:08.627Z,11.94
2023-10-22T03:58:35.575Z,11.89
2023-10-22T04:01:02.712Z,11.89
2023-10-22T04:03:29.542Z,11.86
2023-10-22T04:05:59.791Z,11.83
2023-10-22T04:08:27.210Z,11.79
2023-10-22T04:10:54.128Z,11.77
2023-10-22T04:13:21.024Z,11.77
2023-10-22T04:15:49.653Z,11.74
2023-10-22T04:18:18.162Z,11.68
2023-10-22T04:20:45.137Z,11.67
2023-10-22T04:23:12.097Z,11.65
2023-10-22T04:25:41.312Z,11.64
2023-10-22T04:28:08.601Z,11.65
2023-10-22T04:30:42.302Z,11.63
2023-10-22T04:33:09.606Z,11.61
2023-10-22T04:35:36.972Z,11.62
2023-10-22T04:38:04.466Z,11.60
2023-10-22T04:40:36.018Z,11.60
2023-10-22T04:43:03.296Z,11.64
2023-10-22T04:45:30.120Z,11.64
2023-10-22T04:47:57.118Z,11.65
2023-10-22T04:50:25.649Z,11.66
2023-10-22T04:52:53.234Z,11.64
2023-10-22T04:55:20.074Z,11.64
2023-10-22T04:57:46.913Z,11.63
2023-10-22T05:00:14.462Z,11.62
2023-10-22T05:02:41.439Z,11.56
2023-10-22T05:05:08.416Z,11.52
2023-10-22T05:07:35.172Z,11.50
2023-10-22T05:10:02.089Z,11.49
2023-10-22T05:12:28.985Z,11.45
2023-10-22T05:14:55.845Z,11.44
2023-10-22T05:17:25.658Z,11.42
2023-10-22T05:19:52.610Z,11.38
2023-10-22T05:22:19.570Z,11.38
2023-10-22T05:24:49.862Z,11.28
2023-10-22T05:27:18.505Z,11.32
2023-10-22T05:29:47.456Z,11.29
2023-10-22T05:32:17.639Z,11.28
2023-10-22T05:34:45.001Z,11.29
2023-10-22T05:37:12.063Z,11.26
2023-10-22T05:39:38.948Z,11.21
2023-10-22T05:42:06.490Z,11.19
2023-10-22T05:44:36.725Z,11.17
2023-10-22T05:47:04.971Z,11.17
2023-10-22T05:49:31.756Z,11.13
2023-10-22T05:51:58.653Z,11.13
2023-10-22T05:54:25.490Z,11.10
2023-10-22T05:56:52.791Z,11.09
2023-10-22T05:59:19.692Z,11.07
2023-10-22T06:01:46.566Z,11.08
2023-10-22T06:04:13.467Z,11.07
2023-10-22T06:06:40.392Z,11.08
2023-10-22T06:09:07.374Z,11.07
2023-10-22T06:11:35.195Z,11.05
2023-10-22T06:14:03.795Z,11.03
2023-10-22T06:16:32.269Z,10.99
2023-10-22T06:18:59.235Z,11.02
2023-10-22T06:21:25.981Z,11.04
2023-10-22T06:23:52.834Z,10.98
2023-10-22T06:26:19.666Z,11.01
2023-10-22T06:28:46.680Z,10.95
2023-10-22T06:31:14.469Z,10.93
2023-10-22T06:33:42.385Z,10.93
2023-10-22T06:36:24.265Z,10.89
2023-10-22T06:38:51.189Z,10.99
2023-10-22T06:41:20.875Z,11.00
2023-10-22T06:43:48.437Z,11.02
2023-10-22T06:46:18.444Z,11.00
2023-10-22T06:48:45.674Z,11.02
2023-10-22T06:51:13.773Z,11.00
2023-10-22T06:53:41.268Z,11.02
2023-10-22T06:56:08.175Z,11.00
2023-10-22T06:58:37.008Z,10.98
2023-10-22T07:01:08.338Z,10.99
2023-10-22T07:03:45.377Z,10.98
2023-10-22T07:06:12.598Z,10.99
2023-10-22T07:08:39.912Z,10.99
2023-10-22T07:11:06.698Z,10.99
2023-10-22T07:13:33.614Z,11.01
2023-10-22T07:16:00.567Z,11.00
2023-10-22T07:18:27.506Z,11.03
2023-10-22T07:20:54.389Z,11.05
2023-10-22T07:23:21.284Z,11.08
2023-10-22T07:25:48.506Z,11.11
2023-10-22T07:28:17.506Z,11.11
2023-10-22T07:30:48.833Z,11.10
2023-10-22T07:33:19.888Z,11.17
2023-10-22T07:35:54.442Z,11.16
2023-10-22T07:38:21.335Z,11.17
2023-10-22T07:40:48.712Z,11.23
2023-10-22T07:43:15.847Z,11.28
2023-10-22T07:45:42.838Z,11.33
2023-10-22T07:48:09.895Z,11.39
2023-10-22T07:50:36.753Z,11.42
2023-10-22T07:53:03.477Z,11.46
2023-10-22T07:55:30.395Z,11.52
2023-10-22T07:57:57.463Z,11.58
2023-10-22T08:00:24.286Z,11.64
2023-10-22T08:02:51.361Z,11.67
2023-10-22T08:05:18.304Z,11.73
2023-10-22T08:07:45.377Z,11.73
2023-10-22T08:10:12.146Z,11.77
2023-10-22T08:12:38.989Z,11.82
2023-10-22T08:15:06.682Z,11.86
2023-10-22T08:17:33.492Z,11.89
2023-10-22T08:20:01.042Z,11.90
2023-10-22T08:22:27.798Z,11.94
2023-10-22T08:24:54.542Z,11.95
2023-10-22T08:27:21.523Z,11.99
2023-10-22T08:29:48.426Z,12.01
2023-10-22T08:32:15.242Z,12.09
2023-10-22T08:34:42.002Z,12.15
2023-10-22T08:37:08.908Z,12.18
2023-10-22T08:39:35.859Z,12.26
2023-10-22T08:42:08.299Z,12.34
2023-10-22T08:44:40.069Z,12.41
2023-10-22T08:47:08.840Z,12.50
2023-10-22T08:49:36.411Z,12.59
2023-10-22T08:52:03.722Z,12.68
2023-10-22T08:54:30.476Z,12.75
2023-10-22T08:56:57.410Z,12.80
2023-10-22T08:59:24.562Z,12.85
2023-10-22T09:01:52.011Z,12.93
2023-10-22T09:04:19.066Z,12.96
2023-10-22T09:06:48.278Z,12.98
2023-10-22T09:09:35.519Z,12.96
2023-10-22T09:12:02.941Z,13.06
2023-10-22T09:14:30.013Z,13.07
2023-10-22T09:16:57.328Z,13.10
2023-10-22T09:19:41.935Z,13.09
2023-10-22T09:22:21.795Z,13.11
2023-10-22T09:24:50.733Z,13.16
2023-10-22T09:27:28.076Z,13.13
2023-10-22T09:29:55.710Z,13.17
2023-10-22T09:32:22.577Z,13.19
2023-10-22T09:34:49.340Z,13.21
2023-10-22T09:37:16.218Z,13.24
2023-10-22T09:39:44.294Z,13.27
2023-10-22T09:42:17.976Z,13.27
2023-10-22T09:44:45.976Z,13.31
2023-10-22T09:47:25.496Z,13.32
2023-10-22T09:49:54.706Z,13.41
2023-10-22T09:52:22.950Z,13.46
2023-10-22T09:54:51.443Z,13.51
2023-10-22T09:57:21.043Z,13.55
2023-10-22T09:59:48.521Z,13.61
2023-10-22T10:02:23.376Z,13.63
2023-10-22T10:04:50.985Z,13.68
2023-10-22T10:07:18.683Z,13.71
2023-10-22T10:09:46.404Z,13.72
2023-10-22T10:12:14.383Z,13.75
2023-10-22T10:14:44.730Z,13.74
2023-10-22T10:17:12.608Z,13.78
2023-10-22T10:19:39.348Z,13.77
2023-10-22T10:22:06.433Z,13.78
2023-10-22T10:24:33.989Z,13.76
2023-10-22T10:27:00.855Z,13.75
2023-10-22T10:29:29.306Z,13.73
2023-10-22T10:32:13.840Z,13.71
2023-10-22T10:34:44.198Z,13.72
2023-10-22T10:37:16.945Z,13.72
2023-10-22T10:39:44.177Z,13.73
2023-10-22T10:42:12.386Z,13.73
2023-10-22T10:44:57.850Z,13.67
2023-10-22T10:47:30.537Z,13.72
2023-10-22T10:50:05.115Z,13.76
2023-10-22T10:52:36.234Z,13.79
2023-10-22T10:55:33.508Z,13.81
2023-10-22T10:58:01.126Z,13.92
2023-10-22T11:00:31.757Z,13.96
2023-10-22T11:03:04.595Z,14.00
2023-10-22T11:05:40.950Z,14.03
2023-10-22T11:08:19.725Z,14.03
2023-10-22T11:10:47.142Z,14.08
2023-10-22T11:13:15.107Z,14.11
2023-10-22T11:15:42.338Z,14.14
2023-10-22T11:18:11.242Z,14.18
2023-10-22T11:20:43.132Z,14.20
2023-10-22T11:23:19.223Z,14.15
2023-10-22T11:25:46.673Z,14.11
2023-10-22T11:28:13.761Z,14.13
2023-10-22T11:30:42.750Z,14.18
2023-10-22T11:33:12.938Z,14.24
2023-10-22T11:35:39.917Z,14.30
2023-10-22T11:38:07.557Z,14.33
2023-10-22T11:40:38.001Z,14.36
2023-10-22T11:43:15.135Z,14.30
2023-10-22T11:45:52.607Z,14.34
2023-10-22T11:48:28.023Z,14.42
2023-10-22T11:51:00.765Z,14.41
2023-10-22T11:53:48.975Z,14.38
2023-10-22T11:56:15.898Z,14.40
2023-10-22T11:58:44.354Z,14.37
2023-10-22T12:01:11.356Z,14.33
2023-10-22T12:03:38.232Z,14.29
2023-10-22T12:06:05.279Z,14.27
2023-10-22T12:08:32.152Z,14.30
2023-10-22T12:10:59.013Z,14.31
2023-10-22T12:13:26.025Z,14.31
2023-10-22T12:15:53.157Z,14.30
2023-10-22T12:18:20.054Z,14.29
2023-10-22T12:20:47.024Z,14.36
2023-10-22T12:23:13.909Z,14.40
2023-10-22T12:25:40.824Z,14.37
2023-10-22T12:28:07.788Z,14.38
2023-10-22T12:30:35.887Z,14.37
2023-10-22T12:33:03.253Z,14.43
2023-10-22T12:35:30.126Z,14.43
2023-10-22T12:37:56.939Z,14.46
2023-10-22T12:40:23.803Z,14.47
2023-10-22T12:42:50.937Z,14.52
2023-10-22T12:45:18.316Z,14.57
2023-10-22T12:47:47.431Z,14.60
2023-10-22T12:50:14.511Z,14.65
2023-10-22T12:52:41.684Z,14.67
2023-10-22T12:55:08.850Z,14.67
2023-10-22T12:57:35.941Z,14.70
2023-10-22T13:00:13.509Z,14.68
2023-10-22T13:02:41.761Z,14.70
2023-10-22T13:05:09.220Z,14.72
2023-10-22T13:07:37.371Z,14.75
2023-10-22T13:10:05.653Z,14.79
2023-10-22T13:12:32.988Z,14.76
2023-10-22T13:14:59.967Z,14.75
2023-10-22T13:17:26.866Z,14.79
2023-10-22T13:19:53.947Z,14.79
2023-10-22T13:22:20.690Z,14.82
2023-10-22T13:24:47.462Z,14.82
2023-10-22T13:27:14.276Z,14.84
2023-10-22T13:29:40.995Z,14.82
2023-10-22T13:32:07.918Z,14.80
2023-10-22T13:34:38.774Z,14.76
2023-10-22T13:37:10.252Z,14.73
2023-10-22T13:39:37.169Z,14.71
2023-10-22T13:42:04.325Z,14.69
2023-10-22T13:44:31.181Z,14.71
2023-10-22T13:46:58.074Z,14.71
2023-10-22T13:49:25.015Z,14.73
2023-10-22T13:51:51.836Z,14.73
2023-10-22T13:54:18.734Z,14.74
2023-10-22T13:56:45.490Z,14.73
2023-10-22T13:59:14.394Z,14.72
2023-10-22T14:01:41.894Z,14.70
2023-10-22T14:04:08.831Z,14.68
2023-10-22T14:06:35.851Z,14.69
2023-10-22T14:09:02.683Z,14.66
2023-10-22T14:11:29.615Z,14.65
2023-10-22T14:13:59.189Z,14.63
2023-10-22T14:16:26.044Z,14.66
2023-10-22T14:18:53.063Z,14.64
2023-10-22T14:21:21.610Z,14.65
2023-10-22T14:23:48.551Z,14.63
2023-10-22T14:26:15.385Z,14.64
2023-10-22T14:28:42.180Z,14.63
2023-10-22T14:31:09.230Z,14.65
2023-10-22T14:33:36.231Z,14.65
2023-10-22T14:36:04.311Z,14.64
2023-10-22T14:38:31.241Z,14.62
2023-10-22T14:40:58.247Z,14.62
2023-10-22T14:43:25.080Z,14.61
2023-10-22T14:45:52.027Z,14.60
2023-10-22T14:48:18.890Z,14.60
2023-10-22T14:50:59.699Z,14.56
2023-10-22T14:53:26.598Z,14.61
2023-10-22T14:56:04.417Z,14.61
2023-10-22T14:58:31.599Z,14.60
2023-10-22T15:01:05.555Z,14.56
2023-10-22T15:03:32.795Z,14.58
2023-10-22T15:06:00.261Z,14.56
2023-10-22T15:08:27.275Z,14.55
2023-10-22T15:10:54.807Z,14.53
2023-10-22T15:13:22.600Z,14.53
2023-10-22T15:15:49.606Z,14.54
2023-10-22T15:18:16.747Z,14.50
2023-10-22T15:20:51.585Z,14.46
2023-10-22T15:23:19.148Z,14.46
2023-10-22T15:25:47.632Z,14.45
2023-10-22T15:28:14.750Z,14.43
2023-10-22T15:30:42.180Z,14.41
2023-10-22T15:33:09.470Z,14.42
2023-10-22T15:35:36.458Z,14.40
2023-10-22T15:38:05.249Z,14.38
2023-10-22T15:40:32.533Z,14.39
2023-10-22T15:42:59.736Z,14.37
2023-10-22T15:45:26.966Z,14.36
2023-10-22T15:47:54.441Z,14.34
2023-10-22T15:50:22.496Z,14.30
2023-10-22T15:52:49.939Z,14.29
2023-10-22T15:55:17.137Z,14.26
2023-10-22T15:57:43.912Z,14.23
2023-10-22T16:00:12.129Z,14.20
2023-10-22T16:02:39.019Z,14.19
2023-10-22T16:05:09.540Z,14.16
2023-10-22T16:14:27.759Z,14.04
2023-10-22T16:15:16.671Z,14.15
2023-10-22T16:16:54.716Z,14.03
2023-10-22T16:19:21.457Z,14.00
2023-10-22T16:21:48.161Z,13.97
2023-10-22T16:24:14.903Z,13.95
2023-10-22T16:26:41.769Z,13.95
2023-10-22T16:29:08.544Z,13.93
2023-10-22T16:31:35.414Z,13.91
2023-10-22T16:34:02.304Z,13.90
2023-10-22T16:36:29.148Z,13.88
2023-10-22T16:38:55.955Z,13.85
2023-10-22T16:41:22.773Z,13.84
2023-10-22T16:43:49.667Z,13.81
2023-10-22T16:46:17.144Z,13.79
2023-10-22T16:48:44.022Z,13.77
2023-10-22T16:51:11.086Z,13.75
2023-10-22T16:53:38.011Z,13.73
2023-10-22T16:56:05.046Z,13.72
2023-10-22T16:58:33.332Z,13.72
2023-10-22T17:01:07.107Z,13.66
2023-10-22T17:03:35.048Z,13.67
2023-10-22T17:06:02.990Z,13.66
2023-10-22T17:08:29.775Z,13.64
2023-10-22T17:10:56.579Z,13.60
2023-10-22T17:13:23.649Z,13.60
2023-10-22T17:15:50.553Z,13.57
2023-10-22T17:18:18.369Z,13.56
2023-10-22T17:20:45.431Z,13.54
2023-10-22T17:23:12.307Z,13.52
2023-10-22T17:25:46.998Z,13.48
2023-10-22T17:28:13.898Z,13.49
2023-10-22T17:30:41.019Z,13.46
2023-10-22T17:33:10.207Z,13.44
2023-10-22T17:35:37.738Z,13.42
2023-10-22T17:38:04.926Z,13.42
2023-10-22T17:40:38.221Z,13.38
2023-10-22T17:43:05.635Z,13.40
2023-10-22T17:45:42.434Z,13.32
2023-10-22T17:48:10.000Z,13.33
2023-10-22T17:50:37.070Z,13.34
2023-10-22T17:53:19.619Z,13.32
2023-10-22T17:56:08.885Z,13.25
2023-10-22T17:58:36.926Z,13.28
2023-10-22T18:01:04.023Z,13.27
2023-10-22T18:03:31.214Z,13.27
2023-10-22T18:06:02.357Z,13.23
2023-10-22T18:08:30.000Z,13.24
2023-10-22T18:10:58.428Z,13.22
2023-10-22T18:13:29.081Z,13.20
2023-10-22T18:15:56.855Z,13.17
2023-10-22T18:18:24.447Z,13.16
2023-10-22T18:20:53.133Z,13.16
2023-10-22T18:23:21.649Z,13.13
2023-10-22T18:25:59.374Z,13.06
2023-10-22T18:28:26.478Z,13.10
2023-10-22T18:32:10.586Z,13.00
2023-10-22T18:34:37.876Z,13.08
2023-10-22T18:37:05.158Z,13.06
2023-10-22T18:39:32.276Z,13.08
2023-10-22T18:42:12.017Z,13.09
2023-10-22T18:44:42.288Z,13.07
2023-10-22T18:47:09.328Z,13.08
2023-10-22T18:49:36.166Z,13.09
2023-10-22T18:52:03.067Z,13.05
2023-10-22T18:54:29.937Z,13.06
2023-10-22T18:56:56.861Z,13.04
2023-10-22T18:59:23.875Z,13.00
2023-10-22T19:01:51.014Z,12.97
2023-10-22T19:04:18.094Z,12.99
2023-10-22T19:06:45.099Z,12.99
2023-10-22T19:09:12.652Z,12.99
2023-10-22T19:11:40.353Z,13.00
2023-10-22T19:14:07.468Z,12.98
2023-10-22T19:16:34.530Z,13.01
2023-10-22T19:19:01.501Z,12.99
2023-10-22T19:21:29.092Z,12.97
2023-10-22T19:23:56.072Z,12.97
2023-10-22T19:26:23.107Z,12.98
2023-10-22T19:28:50.162Z,12.95
2023-10-22T19:31:17.325Z,12.97
2023-10-22T19:33:44.459Z,12.96
2023-10-22T19:36:18.945Z,12.90
2023-10-22T19:38:46.657Z,12.95
2023-10-22T19:41:20.080Z,12.91
2023-10-22T19:43:46.967Z,12.92
2023-10-22T19:46:14.157Z,12.92
2023-10-22T19:48:43.234Z,12.91
2023-10-22T19:51:10.113Z,12.91
2023-10-22T19:53:37.062Z,12.92
2023-10-22T19:56:04.228Z,12.90
2023-10-22T19:58:31.386Z,12.90
2023-10-22T20:00:58.619Z,12.88
2023-10-22T20:03:25.756Z,12.86
2023-10-22T20:05:53.615Z,12.87
2023-10-22T20:08:20.507Z,12.87
2023-10-22T20:10:47.977Z,12.85
2023-10-22T20:13:14.802Z,12.85
2023-10-22T20:15:41.711Z,12.83
2023-10-22T20:18:09.493Z,12.79
2023-10-22T20:20:36.928Z,12.81
2023-10-22T20:23:03.802Z,12.79
2023-10-22T20:25:30.636Z,12.78
2023-10-22T20:28:05.897Z,12.78
2023-10-22T20:30:34.778Z,12.75
2023-10-22T20:33:01.663Z,12.75
2023-10-22T20:35:28.532Z,12.76
2023-10-22T20:37:55.331Z,12.75
2023-10-22T20:40:32.719Z,12.74
2023-10-22T20:43:05.646Z,12.73
2023-10-22T20:45:34.536Z,12.72
2023-10-22T20:48:01.515Z,12.71
2023-10-22T20:50:29.649Z,12.73
2023-10-22T20:52:56.435Z,12.72
2023-10-22T20:55:23.298Z,12.69
2023-10-22T20:57:50.206Z,12.69
2023-10-22T21:00:17.291Z,12.69
2023-10-22T21:02:44.146Z,12.68
2023-10-22T21:05:10.947Z,12.66
2023-10-22T21:07:37.926Z,12.63
2023-10-22T21:10:05.701Z,12.64
2023-10-22T21:12:32.558Z,12.62
2023-10-22T21:14:59.380Z,12.62
2023-10-22T21:17:26.187Z,12.61
2023-10-22T21:19:53.005Z,12.60
2023-10-22T21:22:19.734Z,12.60
2023-10-22T21:24:46.574Z,12.55
2023-10-22T21:27:13.737Z,12.57
2023-10-22T21:29:41.788Z,12.54
2023-10-22T21:32:08.641Z,12.53
2023-10-22T21:34:35.532Z,12.53
2023-10-22T21:37:02.381Z,12.54
2023-10-22T21:39:29.330Z,12.52
2023-10-22T21:41:56.209Z,12.53
2023-10-22T21:44:23.105Z,12.53
2023-10-22T21:46:49.893Z,12.53
2023-10-22T21:49:16.842Z,12.51
2023-10-22T21:51:43.882Z,12.49
2023-10-22T21:54:10.882Z,12.48
2023-10-22T21:56:37.783Z,12.49
2023-10-22T21:59:04.797Z,12.48
2023-10-22T22:01:36.782Z,12.44
2023-10-22T22:04:03.699Z,12.44
2023-10-22T22:06:30.598Z,12.44
2023-10-22T22:08:57.527Z,12.41
2023-10-22T22:11:24.385Z,12.41
2023-10-22T22:13:51.135Z,12.40
2023-10-22T22:16:18.113Z,12.36
2023-10-22T22:18:45.022Z,12.35
2023-10-22T22:21:11.882Z,12.35
2023-10-22T22:23:38.764Z,12.34
2023-10-22T22:26:05.511Z,12.29
2023-10-22T22:28:32.852Z,12.29
2023-10-22T22:31:01.326Z,12.26
2023-10-22T22:33:28.278Z,12.25
2023-10-22T22:35:55.102Z,12.24
2023-10-22T22:38:21.943Z,12.21
2023-10-22T22:40:48.751Z,12.17
2023-10-22T22:43:15.638Z,12.14
2023-10-22T22:45:42.603Z,12.15
2023-10-22T22:48:09.703Z,12.10
2023-10-22T22:50:36.528Z,12.10
2023-10-22T22:53:03.357Z,12.09
2023-10-22T22:55:30.223Z,12.07
2023-10-22T22:57:57.008Z,12.04
2023-10-22T23:00:23.911Z,12.04
2023-10-22T23:02:51.060Z,12.02
2023-10-22T23:05:18.025Z,12.03
2023-10-22T23:07:45.187Z,12.02
2023-10-22T23:10:12.103Z,12.02
2023-10-22T23:12:38.911Z,12.02
2023-10-22T23:15:07.311Z,11.98
2023-10-22T23:17:34.194Z,11.95
2023-10-22T23:20:01.038Z,11.91
2023-10-22T23:22:27.885Z,11.89
2023-10-22T23:24:54.953Z,11.88
2023-10-22T23:27:21.873Z,11.89
2023-10-22T23:29:48.675Z,11.83
2023-10-22T23:32:15.514Z,11.82
2023-10-22T23:34:42.430Z,11.79
2023-10-22T23:37:09.293Z,11.79
2023-10-22T23:39:36.078Z,11.79
2023-10-22T23:42:03.018Z,11.76
2023-10-22T23:44:29.925Z,11.79
2023-10-22T23:46:56.784Z,11.78
2023-10-22T23:49:24.538Z,11.75
2023-10-22T23:51:51.415Z,11.77
2023-10-22T23:54:18.682Z,11.76
2023-10-22T23:56:45.665Z,11.79
2023-10-22T23:59:12.437Z,11.78
